sensor_id;sensor_type;location;lat;lon;timestamp;P1;durP1;ratioP1;P2;durP2;ratioP2
24801;SDS011;12898;50.520;12.152;2023-04-03T00:01:15;10.40;;;3.20;;
24801;SDS011;12898;50.520;12.152;2023-04-03T00:03:41;9.53;;;2.97;;
24801;SDS011;12898;50.520;12.152;2023-04-03T00:06:07;8.67;;;2.77;;
24801;SDS011;12898;50.520;12.152;2023-04-03T00:08:35;6.77;;;2.87;;
24801;SDS011;12898;50.520;12.152;2023-04-03T00:11:02;11.03;;;3.03;;
24801;SDS011;12898;50.520;12.152;2023-04-03T00:13:28;7.77;;;2.60;;
24801;SDS011;12898;50.520;12.152;2023-04-03T00:15:54;6.53;;;2.50;;
24801;SDS011;12898;50.520;12.152;2023-04-03T00:18:20;6.73;;;2.53;;
24801;SDS011;12898;50.520;12.152;2023-04-03T00:20:47;8.43;;;2.37;;
24801;SDS011;12898;50.520;12.152;2023-04-03T00:23:13;7.83;;;2.57;;
24801;SDS011;12898;50.520;12.152;2023-04-03T00:25:38;11.40;;;2.60;;
24801;SDS011;12898;50.520;12.152;2023-04-03T00:28:04;6.37;;;2.30;;
24801;SDS011;12898;50.520;12.152;2023-04-03T00:30:30;9.37;;;2.80;;
24801;SDS011;12898;50.520;12.152;2023-04-03T00:32:57;5.07;;;2.20;;
24801;SDS011;12898;50.520;12.152;2023-04-03T00:35:23;8.10;;;2.40;;
24801;SDS011;12898;50.520;12.152;2023-04-03T00:37:53;5.83;;;2.53;;
24801;SDS011;12898;50.520;12.152;2023-04-03T00:40:20;12.87;;;2.83;;
24801;SDS011;12898;50.520;12.152;2023-04-03T00:42:48;4.70;;;1.90;;
24801;SDS011;12898;50.520;12.152;2023-04-03T00:45:24;5.87;;;1.87;;
24801;SDS011;12898;50.520;12.152;2023-04-03T00:47:57;4.60;;;2.20;;
24801;SDS011;12898;50.520;12.152;2023-04-03T00:50:25;7.53;;;2.50;;
24801;SDS011;12898;50.520;12.152;2023-04-03T00:52:52;11.47;;;2.33;;
24801;SDS011;12898;50.520;12.152;2023-04-03T00:55:19;6.00;;;1.90;;
24801;SDS011;12898;50.520;12.152;2023-04-03T00:57:45;7.27;;;2.00;;
24801;SDS011;12898;50.520;12.152;2023-04-03T01:00:12;14.13;;;2.87;;
24801;SDS011;12898;50.520;12.152;2023-04-03T01:02:42;4.83;;;2.07;;
24801;SDS011;12898;50.520;12.152;2023-04-03T01:05:08;5.73;;;1.83;;
24801;SDS011;12898;50.520;12.152;2023-04-03T01:07:34;8.00;;;1.97;;
24801;SDS011;12898;50.520;12.152;2023-04-03T01:10:03;13.67;;;2.50;;
24801;SDS011;12898;50.520;12.152;2023-04-03T01:12:39;10.80;;;2.43;;
24801;SDS011;12898;50.520;12.152;2023-04-03T01:15:15;8.97;;;2.53;;
24801;SDS011;12898;50.520;12.152;2023-04-03T01:25:59;8.23;;;2.40;;
24801;SDS011;12898;50.520;12.152;2023-04-03T01:28:32;6.83;;;2.13;;
24801;SDS011;12898;50.520;12.152;2023-04-03T01:33:38;9.20;;;2.20;;
24801;SDS011;12898;50.520;12.152;2023-04-03T01:36:04;9.57;;;2.40;;
24801;SDS011;12898;50.520;12.152;2023-04-03T01:38:31;7.30;;;2.37;;
24801;SDS011;12898;50.520;12.152;2023-04-03T01:40:57;7.20;;;1.87;;
24801;SDS011;12898;50.520;12.152;2023-04-03T01:43:23;7.77;;;1.80;;
24801;SDS011;12898;50.520;12.152;2023-04-03T01:45:48;5.27;;;1.90;;
24801;SDS011;12898;50.520;12.152;2023-04-03T01:48:15;11.20;;;2.67;;
24801;SDS011;12898;50.520;12.152;2023-04-03T01:50:41;7.50;;;1.83;;
24801;SDS011;12898;50.520;12.152;2023-04-03T01:53:07;8.30;;;2.20;;
24801;SDS011;12898;50.520;12.152;2023-04-03T01:55:33;6.20;;;1.90;;
24801;SDS011;12898;50.520;12.152;2023-04-03T01:57:58;6.50;;;1.90;;
24801;SDS011;12898;50.520;12.152;2023-04-03T02:00:24;4.73;;;1.83;;
24801;SDS011;12898;50.520;12.152;2023-04-03T02:02:51;8.13;;;2.40;;
24801;SDS011;12898;50.520;12.152;2023-04-03T02:05:17;5.03;;;2.20;;
24801;SDS011;12898;50.520;12.152;2023-04-03T02:07:43;7.80;;;2.40;;
24801;SDS011;12898;50.520;12.152;2023-04-03T02:10:09;7.27;;;1.93;;
24801;SDS011;12898;50.520;12.152;2023-04-03T02:12:35;8.30;;;2.20;;
24801;SDS011;12898;50.520;12.152;2023-04-03T02:15:01;8.00;;;2.20;;
24801;SDS011;12898;50.520;12.152;2023-04-03T02:17:27;7.77;;;1.90;;
24801;SDS011;12898;50.520;12.152;2023-04-03T02:19:52;5.70;;;1.87;;
24801;SDS011;12898;50.520;12.152;2023-04-03T02:22:18;6.67;;;1.83;;
24801;SDS011;12898;50.520;12.152;2023-04-03T02:24:45;10.17;;;2.30;;
24801;SDS011;12898;50.520;12.152;2023-04-03T02:27:10;9.47;;;2.43;;
24801;SDS011;12898;50.520;12.152;2023-04-03T02:29:36;7.53;;;2.10;;
24801;SDS011;12898;50.520;12.152;2023-04-03T02:32:02;7.37;;;2.37;;
24801;SDS011;12898;50.520;12.152;2023-04-03T02:34:28;8.93;;;2.10;;
24801;SDS011;12898;50.520;12.152;2023-04-03T02:36:53;7.10;;;2.37;;
24801;SDS011;12898;50.520;12.152;2023-04-03T02:39:20;5.53;;;2.00;;
24801;SDS011;12898;50.520;12.152;2023-04-03T02:41:46;6.87;;;2.17;;
24801;SDS011;12898;50.520;12.152;2023-04-03T02:44:12;8.43;;;2.50;;
24801;SDS011;12898;50.520;12.152;2023-04-03T02:46:38;9.17;;;2.20;;
24801;SDS011;12898;50.520;12.152;2023-04-03T02:49:03;6.10;;;2.17;;
24801;SDS011;12898;50.520;12.152;2023-04-03T02:51:29;9.33;;;2.00;;
24801;SDS011;12898;50.520;12.152;2023-04-03T02:53:55;6.00;;;1.50;;
24801;SDS011;12898;50.520;12.152;2023-04-03T02:56:21;8.97;;;2.13;;
24801;SDS011;12898;50.520;12.152;2023-04-03T02:58:47;7.07;;;2.10;;
24801;SDS011;12898;50.520;12.152;2023-04-03T03:01:13;8.10;;;2.30;;
24801;SDS011;12898;50.520;12.152;2023-04-03T03:03:38;7.30;;;2.17;;
24801;SDS011;12898;50.520;12.152;2023-04-03T03:06:05;8.50;;;2.10;;
24801;SDS011;12898;50.520;12.152;2023-04-03T03:08:37;7.10;;;2.07;;
24801;SDS011;12898;50.520;12.152;2023-04-03T03:11:03;9.33;;;2.30;;
24801;SDS011;12898;50.520;12.152;2023-04-03T03:13:30;5.70;;;2.17;;
24801;SDS011;12898;50.520;12.152;2023-04-03T03:15:56;11.30;;;2.40;;
24801;SDS011;12898;50.520;12.152;2023-04-03T03:18:22;9.97;;;2.13;;
24801;SDS011;12898;50.520;12.152;2023-04-03T03:21:06;9.90;;;2.43;;
24801;SDS011;12898;50.520;12.152;2023-04-03T03:23:33;6.63;;;2.13;;
24801;SDS011;12898;50.520;12.152;2023-04-03T03:26:00;9.90;;;2.40;;
24801;SDS011;12898;50.520;12.152;2023-04-03T03:28:32;8.80;;;2.60;;
24801;SDS011;12898;50.520;12.152;2023-04-03T03:30:58;10.73;;;2.60;;
24801;SDS011;12898;50.520;12.152;2023-04-03T03:33:24;9.10;;;2.47;;
24801;SDS011;12898;50.520;12.152;2023-04-03T03:35:51;8.80;;;2.20;;
24801;SDS011;12898;50.520;12.152;2023-04-03T03:38:17;8.63;;;2.77;;
24801;SDS011;12898;50.520;12.152;2023-04-03T03:40:43;6.87;;;1.90;;
24801;SDS011;12898;50.520;12.152;2023-04-03T03:43:09;7.90;;;2.17;;
24801;SDS011;12898;50.520;12.152;2023-04-03T03:45:34;6.57;;;2.07;;
24801;SDS011;12898;50.520;12.152;2023-04-03T03:48:00;10.17;;;2.47;;
24801;SDS011;12898;50.520;12.152;2023-04-03T03:50:28;6.63;;;1.97;;
24801;SDS011;12898;50.520;12.152;2023-04-03T03:52:53;8.57;;;2.37;;
24801;SDS011;12898;50.520;12.152;2023-04-03T03:55:19;9.50;;;2.30;;
24801;SDS011;12898;50.520;12.152;2023-04-03T03:57:45;8.10;;;2.17;;
24801;SDS011;12898;50.520;12.152;2023-04-03T04:00:11;8.97;;;2.10;;
24801;SDS011;12898;50.520;12.152;2023-04-03T04:02:37;8.97;;;2.60;;
24801;SDS011;12898;50.520;12.152;2023-04-03T04:05:02;7.00;;;2.23;;
24801;SDS011;12898;50.520;12.152;2023-04-03T04:07:29;13.47;;;2.40;;
24801;SDS011;12898;50.520;12.152;2023-04-03T04:09:54;8.10;;;2.37;;
24801;SDS011;12898;50.520;12.152;2023-04-03T04:12:20;8.27;;;2.40;;
24801;SDS011;12898;50.520;12.152;2023-04-03T04:14:46;7.47;;;2.50;;
24801;SDS011;12898;50.520;12.152;2023-04-03T04:17:12;6.73;;;2.30;;
24801;SDS011;12898;50.520;12.152;2023-04-03T04:19:39;9.67;;;2.23;;
24801;SDS011;12898;50.520;12.152;2023-04-03T04:22:05;11.47;;;2.63;;
24801;SDS011;12898;50.520;12.152;2023-04-03T04:24:31;10.03;;;2.17;;
24801;SDS011;12898;50.520;12.152;2023-04-03T04:26:56;6.33;;;2.90;;
24801;SDS011;12898;50.520;12.152;2023-04-03T04:29:22;8.93;;;2.50;;
24801;SDS011;12898;50.520;12.152;2023-04-03T04:31:48;8.73;;;2.40;;
24801;SDS011;12898;50.520;12.152;2023-04-03T04:34:13;12.50;;;2.73;;
24801;SDS011;12898;50.520;12.152;2023-04-03T04:36:40;7.80;;;2.60;;
24801;SDS011;12898;50.520;12.152;2023-04-03T04:39:05;10.60;;;3.03;;
24801;SDS011;12898;50.520;12.152;2023-04-03T04:41:31;13.93;;;2.70;;
24801;SDS011;12898;50.520;12.152;2023-04-03T04:43:57;7.00;;;2.80;;
24801;SDS011;12898;50.520;12.152;2023-04-03T04:46:23;9.90;;;2.60;;
24801;SDS011;12898;50.520;12.152;2023-04-03T04:48:48;9.57;;;3.40;;
24801;SDS011;12898;50.520;12.152;2023-04-03T04:51:14;9.20;;;2.70;;
24801;SDS011;12898;50.520;12.152;2023-04-03T04:53:41;7.53;;;2.43;;
24801;SDS011;12898;50.520;12.152;2023-04-03T04:56:07;9.13;;;3.00;;
24801;SDS011;12898;50.520;12.152;2023-04-03T04:58:33;9.60;;;3.33;;
24801;SDS011;12898;50.520;12.152;2023-04-03T05:01:00;10.20;;;3.10;;
24801;SDS011;12898;50.520;12.152;2023-04-03T05:03:33;11.20;;;3.33;;
24801;SDS011;12898;50.520;12.152;2023-04-03T05:05:59;12.27;;;4.10;;
24801;SDS011;12898;50.520;12.152;2023-04-03T05:08:25;12.13;;;3.80;;
24801;SDS011;12898;50.520;12.152;2023-04-03T05:10:51;8.90;;;3.80;;
24801;SDS011;12898;50.520;12.152;2023-04-03T05:13:18;8.17;;;3.57;;
24801;SDS011;12898;50.520;12.152;2023-04-03T05:15:44;14.17;;;4.13;;
24801;SDS011;12898;50.520;12.152;2023-04-03T05:18:11;13.27;;;3.73;;
24801;SDS011;12898;50.520;12.152;2023-04-03T05:20:37;11.70;;;4.10;;
24801;SDS011;12898;50.520;12.152;2023-04-03T05:23:03;14.07;;;4.20;;
24801;SDS011;12898;50.520;12.152;2023-04-03T05:25:29;13.37;;;5.17;;
24801;SDS011;12898;50.520;12.152;2023-04-03T05:27:55;12.87;;;4.73;;
24801;SDS011;12898;50.520;12.152;2023-04-03T05:30:21;12.60;;;4.70;;
24801;SDS011;12898;50.520;12.152;2023-04-03T05:32:47;12.33;;;5.93;;
24801;SDS011;12898;50.520;12.152;2023-04-03T05:35:12;10.80;;;5.20;;
24801;SDS011;12898;50.520;12.152;2023-04-03T05:37:38;11.53;;;5.53;;
24801;SDS011;12898;50.520;12.152;2023-04-03T05:40:04;13.23;;;5.27;;
24801;SDS011;12898;50.520;12.152;2023-04-03T05:42:32;13.70;;;5.03;;
24801;SDS011;12898;50.520;12.152;2023-04-03T05:44:58;16.47;;;5.23;;
24801;SDS011;12898;50.520;12.152;2023-04-03T05:47:23;13.73;;;5.10;;
24801;SDS011;12898;50.520;12.152;2023-04-03T05:49:49;17.00;;;5.10;;
24801;SDS011;12898;50.520;12.152;2023-04-03T05:54:55;14.33;;;6.47;;
24801;SDS011;12898;50.520;12.152;2023-04-03T05:57:21;12.10;;;5.50;;
24801;SDS011;12898;50.520;12.152;2023-04-03T05:59:46;15.50;;;5.57;;
24801;SDS011;12898;50.520;12.152;2023-04-03T06:02:14;12.87;;;5.90;;
24801;SDS011;12898;50.520;12.152;2023-04-03T06:04:43;11.00;;;5.10;;
24801;SDS011;12898;50.520;12.152;2023-04-03T06:07:13;12.03;;;5.07;;
24801;SDS011;12898;50.520;12.152;2023-04-03T06:09:46;12.97;;;5.73;;
24801;SDS011;12898;50.520;12.152;2023-04-03T06:12:12;13.70;;;6.37;;
24801;SDS011;12898;50.520;12.152;2023-04-03T06:14:38;15.40;;;6.23;;
24801;SDS011;12898;50.520;12.152;2023-04-03T06:17:04;19.17;;;6.63;;
24801;SDS011;12898;50.520;12.152;2023-04-03T06:19:31;11.57;;;6.03;;
24801;SDS011;12898;50.520;12.152;2023-04-03T06:21:57;13.73;;;5.70;;
24801;SDS011;12898;50.520;12.152;2023-04-03T06:24:22;13.80;;;5.83;;
24801;SDS011;12898;50.520;12.152;2023-04-03T06:26:50;14.13;;;5.63;;
24801;SDS011;12898;50.520;12.152;2023-04-03T06:29:17;13.37;;;5.70;;
24801;SDS011;12898;50.520;12.152;2023-04-03T06:31:44;12.90;;;5.97;;
24801;SDS011;12898;50.520;12.152;2023-04-03T06:34:11;14.83;;;6.53;;
24801;SDS011;12898;50.520;12.152;2023-04-03T06:36:37;12.90;;;6.30;;
24801;SDS011;12898;50.520;12.152;2023-04-03T06:39:04;13.20;;;6.80;;
24801;SDS011;12898;50.520;12.152;2023-04-03T06:41:30;13.80;;;7.13;;
24801;SDS011;12898;50.520;12.152;2023-04-03T06:43:56;17.23;;;7.40;;
24801;SDS011;12898;50.520;12.152;2023-04-03T06:46:23;12.57;;;6.60;;
24801;SDS011;12898;50.520;12.152;2023-04-03T06:48:50;14.67;;;6.77;;
24801;SDS011;12898;50.520;12.152;2023-04-03T06:51:24;14.10;;;6.97;;
24801;SDS011;12898;50.520;12.152;2023-04-03T06:53:54;13.53;;;6.50;;
24801;SDS011;12898;50.520;12.152;2023-04-03T06:56:22;13.03;;;6.27;;
24801;SDS011;12898;50.520;12.152;2023-04-03T06:58:48;13.13;;;6.20;;
24801;SDS011;12898;50.520;12.152;2023-04-03T07:01:15;16.40;;;6.30;;
24801;SDS011;12898;50.520;12.152;2023-04-03T07:03:44;11.33;;;5.53;;
24801;SDS011;12898;50.520;12.152;2023-04-03T07:06:12;13.53;;;5.20;;
24801;SDS011;12898;50.520;12.152;2023-04-03T07:08:39;15.00;;;5.63;;
24801;SDS011;12898;50.520;12.152;2023-04-03T07:11:06;14.10;;;5.30;;
24801;SDS011;12898;50.520;12.152;2023-04-03T07:13:33;11.57;;;4.70;;
24801;SDS011;12898;50.520;12.152;2023-04-03T07:15:59;8.37;;;4.40;;
24801;SDS011;12898;50.520;12.152;2023-04-03T07:18:25;9.67;;;4.60;;
24801;SDS011;12898;50.520;12.152;2023-04-03T07:20:51;11.53;;;5.23;;
24801;SDS011;12898;50.520;12.152;2023-04-03T07:23:17;10.80;;;4.63;;
24801;SDS011;12898;50.520;12.152;2023-04-03T07:25:44;11.83;;;5.23;;
24801;SDS011;12898;50.520;12.152;2023-04-03T07:28:11;10.60;;;4.67;;
24801;SDS011;12898;50.520;12.152;2023-04-03T07:30:47;10.60;;;4.37;;
24801;SDS011;12898;50.520;12.152;2023-04-03T07:33:18;8.27;;;4.10;;
24801;SDS011;12898;50.520;12.152;2023-04-03T07:35:46;8.40;;;4.00;;
24801;SDS011;12898;50.520;12.152;2023-04-03T07:38:12;6.20;;;3.70;;
24801;SDS011;12898;50.520;12.152;2023-04-03T07:40:38;10.57;;;4.70;;
24801;SDS011;12898;50.520;12.152;2023-04-03T07:43:05;10.50;;;4.23;;
24801;SDS011;12898;50.520;12.152;2023-04-03T07:45:31;9.00;;;3.80;;
24801;SDS011;12898;50.520;12.152;2023-04-03T07:47:59;8.27;;;3.90;;
24801;SDS011;12898;50.520;12.152;2023-04-03T07:50:25;9.27;;;4.10;;
24801;SDS011;12898;50.520;12.152;2023-04-03T07:52:52;7.27;;;3.53;;
24801;SDS011;12898;50.520;12.152;2023-04-03T07:55:19;8.17;;;3.57;;
24801;SDS011;12898;50.520;12.152;2023-04-03T07:57:45;7.37;;;3.80;;
24801;SDS011;12898;50.520;12.152;2023-04-03T08:00:11;8.47;;;3.70;;
24801;SDS011;12898;50.520;12.152;2023-04-03T08:02:38;8.93;;;3.23;;
24801;SDS011;12898;50.520;12.152;2023-04-03T08:05:04;7.77;;;3.10;;
24801;SDS011;12898;50.520;12.152;2023-04-03T08:07:30;7.23;;;3.07;;
24801;SDS011;12898;50.520;12.152;2023-04-03T08:09:56;11.57;;;3.77;;
24801;SDS011;12898;50.520;12.152;2023-04-03T08:12:22;7.40;;;3.63;;
24801;SDS011;12898;50.520;12.152;2023-04-03T08:14:47;9.83;;;3.47;;
24801;SDS011;12898;50.520;12.152;2023-04-03T08:17:13;9.87;;;3.40;;
24801;SDS011;12898;50.520;12.152;2023-04-03T08:19:39;7.60;;;3.13;;
24801;SDS011;12898;50.520;12.152;2023-04-03T08:22:05;7.57;;;2.90;;
24801;SDS011;12898;50.520;12.152;2023-04-03T08:24:31;6.83;;;2.97;;
24801;SDS011;12898;50.520;12.152;2023-04-03T08:26:58;7.47;;;2.90;;
24801;SDS011;12898;50.520;12.152;2023-04-03T08:29:24;5.90;;;3.03;;
24801;SDS011;12898;50.520;12.152;2023-04-03T08:31:50;5.57;;;3.07;;
24801;SDS011;12898;50.520;12.152;2023-04-03T08:34:17;5.80;;;2.80;;
24801;SDS011;12898;50.520;12.152;2023-04-03T08:36:44;7.10;;;3.07;;
24801;SDS011;12898;50.520;12.152;2023-04-03T08:39:10;5.57;;;2.40;;
24801;SDS011;12898;50.520;12.152;2023-04-03T08:41:37;6.07;;;2.67;;
24801;SDS011;12898;50.520;12.152;2023-04-03T08:44:28;7.67;;;2.70;;
24801;SDS011;12898;50.520;12.152;2023-04-03T08:47:40;10.07;;;2.77;;
24801;SDS011;12898;50.520;12.152;2023-04-03T08:50:15;7.43;;;2.30;;
24801;SDS011;12898;50.520;12.152;2023-04-03T08:52:44;6.03;;;2.00;;
24801;SDS011;12898;50.520;12.152;2023-04-03T08:55:30;6.68;;;2.35;;
24801;SDS011;12898;50.520;12.152;2023-04-03T08:58:06;5.27;;;2.27;;
24801;SDS011;12898;50.520;12.152;2023-04-03T09:00:49;8.33;;;2.80;;
24801;SDS011;12898;50.520;12.152;2023-04-03T09:03:20;5.67;;;2.80;;
24801;SDS011;12898;50.520;12.152;2023-04-03T09:08:37;7.20;;;2.70;;
24801;SDS011;12898;50.520;12.152;2023-04-03T09:11:23;4.53;;;2.40;;
24801;SDS011;12898;50.520;12.152;2023-04-03T09:16:48;7.00;;;2.63;;
24801;SDS011;12898;50.520;12.152;2023-04-03T09:19:25;8.63;;;2.70;;
24801;SDS011;12898;50.520;12.152;2023-04-03T09:21:57;5.30;;;2.40;;
24801;SDS011;12898;50.520;12.152;2023-04-03T09:24:39;7.55;;;2.50;;
24801;SDS011;12898;50.520;12.152;2023-04-03T09:27:07;7.60;;;2.50;;
24801;SDS011;12898;50.520;12.152;2023-04-03T09:29:39;5.05;;;2.40;;
24801;SDS011;12898;50.520;12.152;2023-04-03T09:40:39;6.28;;;2.45;;
24801;SDS011;12898;50.520;12.152;2023-04-03T09:45:42;6.50;;;2.33;;
24801;SDS011;12898;50.520;12.152;2023-04-03T09:53:28;6.90;;;2.22;;
24801;SDS011;12898;50.520;12.152;2023-04-03T09:58:42;6.55;;;1.90;;
24801;SDS011;12898;50.520;12.152;2023-04-03T10:01:29;5.75;;;1.90;;
24801;SDS011;12898;50.520;12.152;2023-04-03T10:12:17;4.47;;;1.52;;
24801;SDS011;12898;50.520;12.152;2023-04-03T10:14:39;5.10;;;1.88;;
24801;SDS011;12898;50.520;12.152;2023-04-03T10:20:23;5.85;;;1.88;;
24801;SDS011;12898;50.520;12.152;2023-04-03T10:23:15;4.10;;;1.70;;
24801;SDS011;12898;50.520;12.152;2023-04-03T10:31:25;7.15;;;2.17;;
24801;SDS011;12898;50.520;12.152;2023-04-03T10:40:01;5.70;;;1.58;;
24801;SDS011;12898;50.520;12.152;2023-04-03T10:42:46;5.57;;;1.55;;
24801;SDS011;12898;50.520;12.152;2023-04-03T10:51:00;7.53;;;2.00;;
24801;SDS011;12898;50.520;12.152;2023-04-03T10:59:25;7.53;;;2.03;;
24801;SDS011;12898;50.520;12.152;2023-04-03T11:02:04;4.65;;;1.73;;
24801;SDS011;12898;50.520;12.152;2023-04-03T11:04:40;4.88;;;1.65;;
24801;SDS011;12898;50.520;12.152;2023-04-03T11:07:20;5.40;;;1.77;;
24801;SDS011;12898;50.520;12.152;2023-04-03T11:09:50;4.57;;;1.70;;
24801;SDS011;12898;50.520;12.152;2023-04-03T11:12:26;3.75;;;1.80;;
24801;SDS011;12898;50.520;12.152;2023-04-03T11:15:17;7.35;;;1.83;;
24801;SDS011;12898;50.520;12.152;2023-04-03T11:17:48;5.60;;;1.90;;
24801;SDS011;12898;50.520;12.152;2023-04-03T11:20:28;4.43;;;1.67;;
24801;SDS011;12898;50.520;12.152;2023-04-03T11:23:02;5.65;;;1.70;;
24801;SDS011;12898;50.520;12.152;2023-04-03T11:25:34;6.20;;;2.10;;
24801;SDS011;12898;50.520;12.152;2023-04-03T11:28:04;3.65;;;1.50;;
24801;SDS011;12898;50.520;12.152;2023-04-03T11:36:50;3.65;;;1.50;;
24801;SDS011;12898;50.520;12.152;2023-04-03T11:39:29;5.32;;;1.83;;
24801;SDS011;12898;50.520;12.152;2023-04-03T11:42:46;3.28;;;1.48;;
24801;SDS011;12898;50.520;12.152;2023-04-03T11:44:44;3.80;;;1.48;;
24801;SDS011;12898;50.520;12.152;2023-04-03T11:47:10;2.80;;;1.25;;
24801;SDS011;12898;50.520;12.152;2023-04-03T12:16:29;3.85;;;1.50;;
24801;SDS011;12898;50.520;12.152;2023-04-03T12:47:29;4.85;;;1.10;;
24801;SDS011;12898;50.520;12.152;2023-04-03T12:50:01;4.43;;;1.50;;
24801;SDS011;12898;50.520;12.152;2023-04-03T12:53:05;3.17;;;1.17;;
24801;SDS011;12898;50.520;12.152;2023-04-03T12:55:37;3.60;;;1.33;;
24801;SDS011;12898;50.520;12.152;2023-04-03T13:01:03;3.67;;;1.23;;
24801;SDS011;12898;50.520;12.152;2023-04-03T13:03:44;5.05;;;1.17;;
24801;SDS011;12898;50.520;12.152;2023-04-03T13:06:16;5.10;;;1.30;;
24801;SDS011;12898;50.520;12.152;2023-04-03T13:08:53;2.58;;;1.10;;
24801;SDS011;12898;50.520;12.152;2023-04-03T13:11:24;2.72;;;1.08;;
24801;SDS011;12898;50.520;12.152;2023-04-03T13:13:56;3.10;;;1.27;;
24801;SDS011;12898;50.520;12.152;2023-04-03T13:16:24;4.30;;;1.55;;
24801;SDS011;12898;50.520;12.152;2023-04-03T13:18:51;1.98;;;0.93;;
24801;SDS011;12898;50.520;12.152;2023-04-03T13:21:19;3.95;;;1.35;;
24801;SDS011;12898;50.520;12.152;2023-04-03T13:23:51;2.25;;;0.98;;
24801;SDS011;12898;50.520;12.152;2023-04-03T13:26:23;6.03;;;1.40;;
24801;SDS011;12898;50.520;12.152;2023-04-03T13:28:54;3.38;;;1.20;;
24801;SDS011;12898;50.520;12.152;2023-04-03T13:31:26;1.85;;;1.00;;
24801;SDS011;12898;50.520;12.152;2023-04-03T13:36:38;4.25;;;1.23;;
24801;SDS011;12898;50.520;12.152;2023-04-03T13:41:41;5.03;;;1.50;;
24801;SDS011;12898;50.520;12.152;2023-04-03T13:46:52;3.55;;;1.10;;
24801;SDS011;12898;50.520;12.152;2023-04-03T13:49:30;3.75;;;1.27;;
24801;SDS011;12898;50.520;12.152;2023-04-03T13:52:22;1.75;;;1.00;;
24801;SDS011;12898;50.520;12.152;2023-04-03T13:54:57;4.53;;;1.63;;
24801;SDS011;12898;50.520;12.152;2023-04-03T13:57:26;3.08;;;1.30;;
24801;SDS011;12898;50.520;12.152;2023-04-03T13:59:52;5.15;;;1.30;;
24801;SDS011;12898;50.520;12.152;2023-04-03T14:02:39;10.90;;;2.28;;
24801;SDS011;12898;50.520;12.152;2023-04-03T14:05:04;6.78;;;1.60;;
24801;SDS011;12898;50.520;12.152;2023-04-03T14:07:33;3.67;;;1.52;;
24801;SDS011;12898;50.520;12.152;2023-04-03T14:09:59;1.90;;;0.90;;
24801;SDS011;12898;50.520;12.152;2023-04-03T14:15:02;3.60;;;1.27;;
24801;SDS011;12898;50.520;12.152;2023-04-03T14:17:33;1.80;;;0.98;;
24801;SDS011;12898;50.520;12.152;2023-04-03T14:19:58;6.50;;;1.58;;
24801;SDS011;12898;50.520;12.152;2023-04-03T14:22:27;4.45;;;1.50;;
24801;SDS011;12898;50.520;12.152;2023-04-03T14:24:56;5.60;;;1.42;;
24801;SDS011;12898;50.520;12.152;2023-04-03T14:29:51;3.05;;;1.13;;
24801;SDS011;12898;50.520;12.152;2023-04-03T14:32:19;5.13;;;1.42;;
24801;SDS011;12898;50.520;12.152;2023-04-03T14:34:47;3.08;;;1.38;;
24801;SDS011;12898;50.520;12.152;2023-04-03T14:37:18;3.35;;;1.27;;
24801;SDS011;12898;50.520;12.152;2023-04-03T14:39:48;2.53;;;1.17;;
24801;SDS011;12898;50.520;12.152;2023-04-03T14:42:23;4.53;;;1.33;;
24801;SDS011;12898;50.520;12.152;2023-04-03T14:45:02;6.35;;;1.90;;
24801;SDS011;12898;50.520;12.152;2023-04-03T14:47:34;5.88;;;1.50;;
24801;SDS011;12898;50.520;12.152;2023-04-03T14:50:10;4.13;;;1.20;;
24801;SDS011;12898;50.520;12.152;2023-04-03T14:52:39;3.58;;;1.55;;
24801;SDS011;12898;50.520;12.152;2023-04-03T14:55:07;5.43;;;1.60;;
24801;SDS011;12898;50.520;12.152;2023-04-03T14:57:33;3.95;;;1.45;;
24801;SDS011;12898;50.520;12.152;2023-04-03T14:59:59;2.35;;;1.10;;
24801;SDS011;12898;50.520;12.152;2023-04-03T15:04:58;4.63;;;2.15;;
24801;SDS011;12898;50.520;12.152;2023-04-03T15:07:26;2.38;;;1.20;;
24801;SDS011;12898;50.520;12.152;2023-04-03T15:09:53;4.80;;;1.50;;
24801;SDS011;12898;50.520;12.152;2023-04-03T15:12:21;6.82;;;2.08;;
24801;SDS011;12898;50.520;12.152;2023-04-03T15:14:48;3.63;;;1.30;;
24801;SDS011;12898;50.520;12.152;2023-04-03T15:17:15;3.50;;;1.40;;
24801;SDS011;12898;50.520;12.152;2023-04-03T15:19:44;4.85;;;1.60;;
24801;SDS011;12898;50.520;12.152;2023-04-03T15:22:17;5.32;;;2.30;;
24801;SDS011;12898;50.520;12.152;2023-04-03T15:24:44;3.40;;;1.48;;
24801;SDS011;12898;50.520;12.152;2023-04-03T15:27:11;6.85;;;1.90;;
24801;SDS011;12898;50.520;12.152;2023-04-03T15:29:39;7.22;;;1.77;;
24801;SDS011;12898;50.520;12.152;2023-04-03T15:32:06;4.33;;;1.40;;
24801;SDS011;12898;50.520;12.152;2023-04-03T15:34:33;5.82;;;1.98;;
24801;SDS011;12898;50.520;12.152;2023-04-03T15:37:00;9.30;;;1.73;;
24801;SDS011;12898;50.520;12.152;2023-04-03T15:39:25;9.40;;;1.80;;
24801;SDS011;12898;50.520;12.152;2023-04-03T15:41:51;5.17;;;1.57;;
24801;SDS011;12898;50.520;12.152;2023-04-03T15:44:18;7.17;;;1.80;;
24801;SDS011;12898;50.520;12.152;2023-04-03T15:46:45;3.93;;;1.50;;
24801;SDS011;12898;50.520;12.152;2023-04-03T15:49:11;3.87;;;1.57;;
24801;SDS011;12898;50.520;12.152;2023-04-03T15:51:37;4.20;;;1.37;;
24801;SDS011;12898;50.520;12.152;2023-04-03T15:54:03;5.90;;;1.70;;
24801;SDS011;12898;50.520;12.152;2023-04-03T15:56:29;3.90;;;1.60;;
24801;SDS011;12898;50.520;12.152;2023-04-03T15:58:55;4.63;;;2.00;;
24801;SDS011;12898;50.520;12.152;2023-04-03T16:01:20;6.07;;;1.80;;
24801;SDS011;12898;50.520;12.152;2023-04-03T16:03:46;4.60;;;1.80;;
24801;SDS011;12898;50.520;12.152;2023-04-03T16:06:12;4.60;;;1.40;;
24801;SDS011;12898;50.520;12.152;2023-04-03T16:08:40;6.07;;;1.53;;
24801;SDS011;12898;50.520;12.152;2023-04-03T16:11:07;5.73;;;1.63;;
24801;SDS011;12898;50.520;12.152;2023-04-03T16:13:33;5.97;;;1.87;;
24801;SDS011;12898;50.520;12.152;2023-04-03T16:16:00;7.60;;;1.77;;
24801;SDS011;12898;50.520;12.152;2023-04-03T16:18:26;5.00;;;1.70;;
24801;SDS011;12898;50.520;12.152;2023-04-03T16:20:52;4.33;;;1.97;;
24801;SDS011;12898;50.520;12.152;2023-04-03T16:23:18;4.33;;;1.47;;
24801;SDS011;12898;50.520;12.152;2023-04-03T16:25:44;2.13;;;1.43;;
24801;SDS011;12898;50.520;12.152;2023-04-03T16:28:11;6.03;;;1.90;;
24801;SDS011;12898;50.520;12.152;2023-04-03T16:30:39;5.00;;;1.50;;
24801;SDS011;12898;50.520;12.152;2023-04-03T16:33:06;5.30;;;1.80;;
24801;SDS011;12898;50.520;12.152;2023-04-03T16:35:32;3.53;;;1.67;;
24801;SDS011;12898;50.520;12.152;2023-04-03T16:37:57;5.43;;;1.70;;
24801;SDS011;12898;50.520;12.152;2023-04-03T16:40:23;5.70;;;2.50;;
24801;SDS011;12898;50.520;12.152;2023-04-03T16:42:49;7.90;;;3.00;;
24801;SDS011;12898;50.520;12.152;2023-04-03T16:45:14;7.60;;;1.97;;
24801;SDS011;12898;50.520;12.152;2023-04-03T16:47:40;7.50;;;1.87;;
24801;SDS011;12898;50.520;12.152;2023-04-03T16:50:06;5.40;;;1.67;;
24801;SDS011;12898;50.520;12.152;2023-04-03T16:52:32;7.37;;;2.00;;
24801;SDS011;12898;50.520;12.152;2023-04-03T16:54:58;6.10;;;1.63;;
24801;SDS011;12898;50.520;12.152;2023-04-03T16:57:24;6.00;;;1.93;;
24801;SDS011;12898;50.520;12.152;2023-04-03T16:59:50;3.63;;;1.60;;
24801;SDS011;12898;50.520;12.152;2023-04-03T17:02:17;3.77;;;1.50;;
24801;SDS011;12898;50.520;12.152;2023-04-03T17:04:44;8.03;;;1.83;;
24801;SDS011;12898;50.520;12.152;2023-04-03T17:07:10;4.47;;;1.60;;
24801;SDS011;12898;50.520;12.152;2023-04-03T17:09:35;7.53;;;1.87;;
24801;SDS011;12898;50.520;12.152;2023-04-03T17:12:02;5.03;;;2.00;;